Nearby METAR Reports

 

EGKB - Biggin Hill, United Kingdom
Distance from station: S 5mi, 8km
Updated: 30/09/2014 10:50
Light rain, Showers, Partly cloudy
Light rain, Showers, Partly cloudy
 Wind from SSW
Wind: SSW 7 mph , 11 km/h
Temperature: 16°C
Dew Point: 13°C
Humidity: 83%
Barometer: 1024 hPa
Summary: Light rain, Showers
Clouds: Partly cloudy
Visibility: 6 miles , 9 km
Cloud details: Partly cloudy 518 m
2014/09/30 09:50 EGKB 300950Z 20006KT 9000 -SHRA SCT017 16/13 Q1024
EGLC - London City Airp, United Kingdom
Distance from station: NNE 8mi, 13km
Updated: 30/09/2014 10:50
Mostly cloudy
Mostly cloudy
 Wind from SSW
Wind: SSW 7 mph , 11 km/h
Temperature: 19°C
Dew Point: 13°C
Humidity: 68%
Barometer: 1024 hPa
Clouds: Mostly cloudy
Visibility: 6 miles , 10 km
Cloud details: Partly cloudy 914 m
Mostly cloudy 1372 m
2014/09/30 09:50 EGLC 300950Z 21006KT 9999 SCT030 BKN045 19/13 Q1024
 
EGKK - London/Gatwick A, United Kingdom
Distance from station: SSW 19mi, 31km
Updated: 30/09/2014 10:50
Light rain, Mostly cloudy
Light rain, Mostly cloudy
 Wind from S
Wind: S 5 mph , 7 km/h
Temperature: 17°C
Dew Point: 15°C
Humidity: 88%
Barometer: 1024 hPa
Summary: Light rain
Clouds: Mostly cloudy
Visibility: 5 miles , 8 km
Cloud details: Mostly cloudy 305 m
2014/09/30 09:50 EGKK 300950Z 17004KT 8000 -RA BKN010TCU 17/15 Q1024
EGLL - London/Heathrow, United Kingdom
Distance from station: WNW 21mi, 33km
Updated: 30/09/2014 10:50
Partly cloudy
Partly cloudy
 Wind from SW
Wind: SW 8 mph , 13 km/h
Temperature: 18°C
Dew Point: 14°C
Humidity: 78%
Barometer: 1024 hPa
Clouds: Partly cloudy
Visibility: 6 miles , 10 km
Cloud details: Few Clouds 366 m
Partly cloudy 1097 m
2014/09/30 09:50 EGLL 300950Z 22007KT 170V250 9999 FEW012 SCT036 18/14 Q1024 NOSIG